Time;durP1;ratioP1;P1;durP2;ratioP2;P2;SDS_P1;SDS_P2;PMS_P1;PMS_P2;Temp;Humidity;BMP_temperature;BMP_pressure;BME280_temperature;BME280_humidity;BME280_pressure;Samples;Min_cycle;Max_cycle;Signal;HPM_P1;HPM_P2
2021/07/12 00:02:22;;;;;;;10.10;9.10;;;19.50;99.90;;;;;;5043248;28;20033;-77
2021/07/12 00:04:48;;;;;;;11.20;8.60;;;19.40;99.90;;;;;;5037942;28;20051;-78
2021/07/12 00:07:13;;;;;;;;;;;19.30;99.90;;;;;;5043650;28;20495;-77
2021/07/12 00:09:39;;;;;;;10.50;9.25;;;19.20;99.90;;;;;;5049216;28;19927;-76
2021/07/12 00:12:05;;;;;;;11.45;9.65;;;19.10;99.90;;;;;;5016875;28;20037;-76
2021/07/12 00:14:31;;;;;;;;;;;19.10;99.90;;;;;;5029084;28;20409;-77
2021/07/12 00:16:57;;;;;;;10.45;9.45;;;18.90;99.90;;;;;;5028960;28;19925;-76
2021/07/12 00:19:22;;;;;;;11.30;10.20;;;18.80;99.90;;;;;;5049273;28;20037;-76
2021/07/12 00:21:48;;;;;;;;;;;18.80;99.90;;;;;;5045586;28;20065;-76
2021/07/12 00:24:14;;;;;;;12.82;10.10;;;18.70;99.90;;;;;;5041205;28;19924;-78
2021/07/12 00:26:39;;;;;;;;;;;18.60;99.90;;;;;;5041006;28;20049;-80
2021/07/12 00:29:05;;;;;;;11.43;10.23;;;18.50;99.90;;;;;;5036601;28;19917;-77
2021/07/12 00:31:31;;;;;;;;;;;18.40;99.90;;;;;;5036378;28;20033;-78
2021/07/12 00:33:57;;;;;;;14.60;11.38;;;18.40;99.90;;;;;;5025054;28;20048;-79
2021/07/12 00:36:22;;;;;;;;;;;18.30;99.90;;;;;;5026957;28;20040;-77
2021/07/12 00:38:48;;;;;;;12.10;10.90;;;18.20;99.90;;;;;;5042171;28;19923;-77
2021/07/12 00:41:14;;;;;;;;;;;18.20;99.90;;;;;;5037586;28;20092;-75
2021/07/12 00:43:40;;;;;;;13.65;10.95;;;18.20;99.90;;;;;;5038676;28;19924;-80
2021/07/12 00:46:08;;;;;;;;;;;18.20;99.90;;;;;;5041924;28;20047;-77
2021/07/12 00:48:34;;;;;;;12.18;10.88;;;18.10;99.90;;;;;;5034561;28;20011;-80
2021/07/12 00:51:00;;;;;;;12.65;11.25;;;18.10;99.90;;;;;;5038786;28;20040;-76
2021/07/12 00:53:26;;;;;;;13.07;11.68;;;18.20;99.90;;;;;;5039818;28;20037;-77
2021/07/12 00:55:52;;;;;;;;;;;18.20;99.90;;;;;;5033847;28;20088;-76
2021/07/12 00:58:23;;;;;;;12.88;11.52;;;18.20;99.90;;;;;;5047520;28;19916;-77
2021/07/12 01:00:54;;;;;;;13.52;12.05;;;18.20;99.90;;;;;;5034313;28;20052;-77
2021/07/12 01:03:22;;;;;;;15.27;13.55;;;18.20;99.90;;;;;;5031816;28;20037;-77
2021/07/12 01:05:47;;;;;;;13.38;11.68;;;18.30;99.90;;;;;;5034286;28;20077;-76
2021/07/12 01:08:14;;;;;;;15.90;12.63;;;18.30;99.90;;;;;;5040086;28;20038;-77
2021/07/12 01:10:45;;;;;;;12.90;11.60;;;18.30;99.90;;;;;;5037043;28;20041;-75
2021/07/12 01:13:35;;;;;;;15.05;12.70;;;18.40;99.90;;;;;;5039029;28;20041;-77
2021/07/12 01:16:22;;;;;;;14.98;12.07;;;18.40;99.90;;;;;;5030722;28;20041;-76
2021/07/12 01:18:55;;;;;;;;;;;18.40;99.90;;;;;;5031595;28;20406;-76
2021/07/12 01:21:45;;;;;;;13.13;11.32;;;18.40;99.90;;;;;;5036283;28;19924;-76
2021/07/12 01:24:24;;;;;;;13.52;11.85;;;18.40;99.90;;;;;;5039766;28;20052;-76
2021/07/12 01:27:49;;;;;;;14.23;12.68;;;18.40;99.90;;;;;;5051908;28;20502;-76
2021/07/12 01:30:21;;;;;;;14.88;12.63;;;18.40;99.90;;;;;;4985200;28;20166;-77
2021/07/12 01:33:05;;;;;;;14.32;12.75;;;18.40;99.90;;;;;;5020418;28;20069;-76
2021/07/12 01:35:30;;;;;;;14.80;12.80;;;18.50;99.90;;;;;;5039162;28;20033;-76
2021/07/12 01:38:09;;;;;;;16.70;13.98;;;18.50;99.90;;;;;;5036955;28;20034;-76
2021/07/12 01:40:55;;;;;;;15.63;13.82;;;18.50;99.90;;;;;;5048232;28;20152;-76
2021/07/12 01:43:33;;;;;;;16.05;13.57;;;18.50;99.90;;;;;;5052492;28;20441;-76
2021/07/12 01:46:08;;;;;;;17.15;14.93;;;18.50;99.90;;;;;;5033638;28;20041;-77
2021/07/12 01:48:50;;;;;;;15.70;13.52;;;18.50;99.90;;;;;;5042579;28;20096;-76
2021/07/12 01:51:20;;;;;;;17.48;12.95;;;18.60;99.90;;;;;;5030512;28;20407;-76
2021/07/12 01:54:11;;;;;;;15.50;12.90;;;18.50;99.90;;;;;;5036292;28;20439;-76
2021/07/12 01:56:49;;;;;;;15.80;13.57;;;18.60;99.90;;;;;;5033941;28;20037;-76
2021/07/12 01:59:38;;;;;;;15.00;13.38;;;18.50;99.90;;;;;;5030113;28;20033;-75
2021/07/12 02:02:06;;;;;;;15.60;13.35;;;18.60;99.90;;;;;;5022272;28;20051;-76
2021/07/12 02:04:33;;;;;;;15.52;12.70;;;18.60;99.90;;;;;;5046952;28;20060;-77
2021/07/12 02:07:00;;;;;;;16.40;13.63;;;18.50;99.90;;;;;;5044577;28;20068;-77
2021/07/12 02:09:27;;;;;;;16.02;14.30;;;18.60;99.90;;;;;;5046075;28;20060;-76
2021/07/12 02:11:56;;;;;;;17.60;14.48;;;18.60;99.90;;;;;;5050150;28;20037;-77
2021/07/12 02:14:24;;;;;;;16.00;13.88;;;18.60;99.90;;;;;;5041727;28;20037;-76
2021/07/12 02:16:51;;;;;;;18.02;13.57;;;18.50;99.90;;;;;;5051372;28;20041;-75
2021/07/12 02:19:19;;;;;;;15.75;13.85;;;18.50;99.90;;;;;;5044410;28;20040;-75
2021/07/12 02:21:49;;;;;;;14.60;12.55;;;18.50;99.90;;;;;;5021705;28;20056;-77
2021/07/12 02:24:17;;;;;;;17.85;13.73;;;18.40;99.90;;;;;;5040660;28;20491;-77
2021/07/12 02:26:45;;;;;;;16.15;13.35;;;18.30;99.90;;;;;;5046755;28;20033;-77
2021/07/12 02:29:14;;;;;;;17.13;13.77;;;18.30;99.90;;;;;;5039433;28;20107;-76
2021/07/12 02:31:41;;;;;;;18.30;14.93;;;18.20;99.90;;;;;;5033024;28;20038;-77
2021/07/12 02:34:08;;;;;;;17.42;14.57;;;18.20;99.90;;;;;;5044740;28;20056;-76
2021/07/12 02:36:35;;;;;;;18.85;15.77;;;18.10;99.90;;;;;;5036938;28;20040;-77
2021/07/12 02:39:03;;;;;;;16.88;14.73;;;18.00;99.90;;;;;;5036019;28;20104;-77
2021/07/12 02:41:30;;;;;;;17.50;15.15;;;17.90;99.90;;;;;;5038814;28;20037;-76
2021/07/12 02:43:59;;;;;;;18.95;15.80;;;17.80;99.90;;;;;;5026815;28;20049;-76
2021/07/12 02:46:25;;;;;;;19.13;15.30;;;17.80;99.90;;;;;;5037083;28;20033;-76
2021/07/12 02:48:51;;;;;;;18.73;15.15;;;17.70;99.90;;;;;;5050948;28;20439;-76
2021/07/12 02:51:18;;;;;;;;;;;17.60;99.90;;;;;;5018027;28;20645;-77
2021/07/12 02:53:53;;;;;;;18.42;14.77;;;17.60;99.90;;;;;;5047409;28;19920;-76
2021/07/12 02:56:19;;;;;;;18.92;15.45;;;17.50;99.90;;;;;;5033880;28;20438;-77
2021/07/12 02:58:45;;;;;;;;;;;17.40;99.90;;;;;;5037692;28;20160;-77
2021/07/12 03:01:11;;;;;;;17.92;15.80;;;17.30;99.90;;;;;;5035446;28;19939;-78
2021/07/12 03:03:37;;;;;;;;;;;17.30;99.90;;;;;;5039289;28;20045;-76
2021/07/12 03:06:14;;;;;;;19.55;16.05;;;17.30;99.90;;;;;;5034862;28;19927;-76
2021/07/12 03:08:42;;;;;;;;;;;17.20;99.90;;;;;;5048284;28;20159;-76
2021/07/12 03:11:12;;;;;;;20.10;16.63;;;17.20;99.90;;;;;;5043520;28;19964;-77
2021/07/12 03:14:00;;;;;;;21.30;16.95;;;17.10;99.90;;;;;;5040782;28;20041;-77
2021/07/12 03:16:27;;;;;;;21.60;17.10;;;17.20;99.90;;;;;;5037070;28;20045;-77
2021/07/12 03:18:57;;;;;;;22.05;16.30;;;17.20;99.90;;;;;;5040449;28;20033;-76
2021/07/12 03:21:25;;;;;;;22.88;17.58;;;17.20;99.90;;;;;;5026152;28;20033;-76
2021/07/12 03:23:54;;;;;;;24.08;18.20;;;17.30;99.90;;;;;;5030055;28;20037;-76
2021/07/12 03:26:21;;;;;;;24.38;17.38;;;17.30;99.90;;;;;;5033709;28;20033;-76
2021/07/12 03:28:50;;;;;;;20.30;16.85;;;17.40;99.90;;;;;;5044154;28;20041;-77
2021/07/12 03:31:21;;;;;;;21.23;18.30;;;17.40;99.90;;;;;;5039525;28;20045;-77
2021/07/12 03:33:50;;;;;;;20.30;17.02;;;17.40;99.90;;;;;;5041607;28;20470;-76
2021/07/12 03:36:17;;;;;;;20.00;17.17;;;17.50;99.90;;;;;;5047855;28;20025;-77
2021/07/12 03:38:43;;;;;;;20.15;17.52;;;17.60;99.90;;;;;;5043155;28;20065;-76
2021/07/12 03:41:09;;;;;;;20.55;17.20;;;17.60;99.90;;;;;;5031051;28;20041;-76
2021/07/12 03:43:39;;;;;;;22.52;18.88;;;17.70;99.90;;;;;;5051313;28;20045;-76
2021/07/12 03:46:04;;;;;;;22.15;17.48;;;17.70;99.90;;;;;;5036943;28;20422;-76
2021/07/12 03:48:56;;;;;;;;;;;17.70;99.90;;;;;;5050229;28;20040;-77
2021/07/12 03:51:25;;;;;;;21.27;17.17;;;17.80;99.90;;;;;;5036588;28;19948;-76
2021/07/12 03:53:51;;;;;;;21.42;17.67;;;17.80;99.90;;;;;;5032563;28;20041;-75
2021/07/12 03:56:16;;;;;;;;;;;17.80;99.90;;;;;;5015198;28;20068;-77
2021/07/12 03:58:43;;;;;;;19.55;17.20;;;17.90;99.90;;;;;;5043250;28;19924;-77
2021/07/12 04:01:09;;;;;;;19.88;16.85;;;17.90;99.90;;;;;;5037346;28;20041;-77
2021/07/12 04:03:35;;;;;;;20.30;16.77;;;18.00;99.90;;;;;;5038431;28;20113;-77
2021/07/12 04:06:03;;;;;;;20.30;16.98;;;18.10;99.90;;;;;;5040906;28;20132;-76
2021/07/12 04:08:29;;;;;;;18.70;14.88;;;18.10;99.90;;;;;;5033604;28;20149;-77
2021/07/12 04:10:56;;;;;;;19.60;16.73;;;18.20;99.90;;;;;;5027846;28;20044;-76
2021/07/12 04:13:21;;;;;;;21.80;17.83;;;18.30;99.90;;;;;;5047502;28;20040;-77
2021/07/12 04:15:47;;;;;;;21.83;17.73;;;18.30;99.90;;;;;;5037572;28;20572;-77
2021/07/12 04:18:13;;;;;;;;;;;18.40;99.90;;;;;;5045265;28;20041;-76
2021/07/12 04:20:41;;;;;;;18.42;16.38;;;18.40;99.90;;;;;;5044643;28;19916;-76
2021/07/12 04:23:08;;;;;;;20.23;17.40;;;18.40;99.90;;;;;;5042682;28;20048;-76
2021/07/12 04:25:34;;;;;;;21.48;17.63;;;18.50;99.90;;;;;;5041850;28;20414;-76
2021/07/12 04:28:01;;;;;;;21.77;17.63;;;18.50;99.90;;;;;;5045747;28;20029;-76
2021/07/12 04:30:27;;;;;;;22.17;18.02;;;18.50;99.90;;;;;;5030805;28;20397;-76
2021/07/12 04:32:52;;;;;;;;;;;18.50;99.90;;;;;;5007249;28;20053;-77
2021/07/12 04:35:19;;;;;;;20.52;16.75;;;18.50;99.90;;;;;;5039794;28;19960;-76
2021/07/12 04:37:44;;;;;;;22.58;18.85;;;18.60;99.90;;;;;;5024266;28;20041;-76
2021/07/12 04:40:11;;;;;;;21.63;17.60;;;18.60;99.90;;;;;;5027679;28;20095;-77
2021/07/12 04:42:37;;;;;;;21.67;18.58;;;18.60;99.90;;;;;;5046371;28;20395;-76
2021/07/12 04:45:04;;;;;;;23.23;18.73;;;18.60;99.90;;;;;;5045254;28;20068;-77
2021/07/12 04:47:31;;;;;;;22.35;18.17;;;18.60;99.90;;;;;;5043021;28;20037;-76
2021/07/12 04:49:57;;;;;;;22.42;17.02;;;18.60;99.90;;;;;;5030889;28;20479;-76
2021/07/12 04:52:23;;;;;;;22.10;17.65;;;18.60;99.90;;;;;;5040917;28;20037;-77
2021/07/12 04:54:49;;;;;;;22.65;17.92;;;18.50;99.90;;;;;;5034981;28;20044;-75
2021/07/12 04:57:15;;;;;;;24.35;19.35;;;18.50;99.90;;;;;;5049135;28;20033;-77
2021/07/12 04:59:41;;;;;;;25.85;20.33;;;18.40;99.90;;;;;;5046493;28;20533;-76
2021/07/12 05:02:09;;;;;;;23.48;19.63;;;18.40;99.90;;;;;;5040561;28;20052;-77
2021/07/12 05:04:39;;;;;;;25.02;19.88;;;18.40;99.90;;;;;;5054266;28;20033;-76
2021/07/12 05:07:06;;;;;;;26.98;20.23;;;18.40;99.90;;;;;;5039359;28;20068;-76
2021/07/12 05:09:33;;;;;;;28.10;21.38;;;18.40;99.90;;;;;;5055639;28;20043;-77
2021/07/12 05:11:59;;;;;;;26.20;21.20;;;18.60;99.90;;;;;;5022745;28;20395;-76
2021/07/12 05:14:26;;;;;;;25.67;21.02;;;18.70;99.90;;;;;;5053939;28;20041;-77
2021/07/12 05:16:53;;;;;;;26.60;20.50;;;18.80;99.90;;;;;;5040164;28;20041;-77
2021/07/12 05:19:19;;;;;;;26.33;21.80;;;18.90;99.90;;;;;;5051260;28;20044;-77
2021/07/12 05:21:45;;;;;;;23.70;19.70;;;19.00;99.90;;;;;;5050023;28;20041;-79
2021/07/12 05:24:12;;;;;;;25.75;20.73;;;19.10;99.90;;;;;;5049769;28;20164;-77
2021/07/12 05:26:37;;;;;;;25.42;22.02;;;19.20;99.90;;;;;;5030850;28;20398;-78
2021/07/12 05:29:03;;;;;;;27.38;20.90;;;19.30;99.90;;;;;;5040546;28;20044;-77
2021/07/12 05:31:29;;;;;;;;;;;19.40;99.90;;;;;;5044520;28;20424;-76
2021/07/12 05:33:55;;;;;;;27.73;21.95;;;19.40;99.90;;;;;;5046594;28;20026;-76
2021/07/12 05:36:22;;;;;;;27.27;21.52;;;19.40;99.90;;;;;;5046861;28;20033;-77
2021/07/12 05:38:48;;;;;;;28.17;22.35;;;19.40;99.90;;;;;;5035819;28;20376;-78
2021/07/12 05:41:13;;;;;;;30.60;23.58;;;19.50;99.90;;;;;;5040078;28;20037;-76
2021/07/12 05:43:39;;;;;;;;;;;19.50;99.90;;;;;;5049179;28;20471;-77
2021/07/12 05:46:06;;;;;;;30.85;24.38;;;19.60;99.90;;;;;;5041188;28;19925;-76
2021/07/12 05:48:32;;;;;;;34.53;24.98;;;19.70;99.90;;;;;;5049032;28;20067;-77
2021/07/12 05:50:58;;;;;;;32.92;25.35;;;19.80;99.90;;;;;;5055649;28;20088;-75
2021/07/12 05:53:24;;;;;;;30.08;24.55;;;19.90;99.90;;;;;;5049346;28;20120;-78
2021/07/12 05:55:50;;;;;;;;;;;20.00;99.90;;;;;;5047367;28;20040;-78
2021/07/12 05:58:16;;;;;;;30.77;23.90;;;20.00;99.90;;;;;;5040023;28;19925;-77
2021/07/12 06:00:42;;;;;;;31.02;23.65;;;20.10;99.90;;;;;;5023193;28;20052;-80
2021/07/12 06:03:08;;;;;;;30.05;23.67;;;20.20;99.90;;;;;;5023165;28;20163;-82
2021/07/12 06:05:34;;;;;;;28.17;23.80;;;20.20;99.90;;;;;;5047345;28;20094;-82
2021/07/12 06:08:00;;;;;;;30.38;23.75;;;20.30;99.90;;;;;;5047071;28;20053;-77
2021/07/12 06:10:26;;;;;;;28.50;22.48;;;20.50;99.90;;;;;;5037894;28;20052;-78
2021/07/12 06:12:52;;;;;;;26.95;22.50;;;20.60;99.90;;;;;;5035423;28;20383;-78
2021/07/12 06:15:18;;;;;;;;;;;20.70;99.90;;;;;;5033293;28;20518;-80
2021/07/12 06:17:47;;;;;;;29.73;23.40;;;20.70;99.90;;;;;;5020592;28;19917;-79
2021/07/12 06:20:18;;;;;;;29.30;23.42;;;20.80;99.90;;;;;;5044521;28;20038;-76
2021/07/12 06:22:52;;;;;;;30.60;23.50;;;20.70;99.90;;;;;;5048320;28;20059;-81
2021/07/12 06:25:20;;;;;;;26.80;22.10;;;20.70;99.90;;;;;;5021625;28;20053;-81
2021/07/12 06:27:46;;;;;;;28.92;21.42;;;20.80;99.90;;;;;;5033062;28;20033;-82
2021/07/12 06:30:14;;;;;;;29.58;22.50;;;20.80;99.90;;;;;;5029659;28;20064;-78
2021/07/12 06:32:40;;;;;;;25.55;21.25;;;20.90;99.90;;;;;;5044572;28;20402;-75
2021/07/12 06:35:07;;;;;;;23.60;19.95;;;21.00;99.90;;;;;;5061704;28;20029;-81
2021/07/12 06:37:33;;;;;;;21.30;18.23;;;21.20;99.90;;;;;;5031353;28;20041;-78
2021/07/12 06:40:00;;;;;;;22.25;17.70;;;21.30;99.90;;;;;;5041390;28;20029;-79
2021/07/12 06:42:26;;;;;;;20.90;17.33;;;21.50;99.90;;;;;;5036530;28;20099;-82
2021/07/12 06:44:57;;;;;;;19.77;17.42;;;21.60;99.90;;;;;;5047128;28;20037;-77
2021/07/12 06:47:26;;;;;;;21.52;17.23;;;21.70;99.90;;;;;;5017628;28;20061;-80
2021/07/12 06:49:53;;;;;;;19.48;16.75;;;21.70;99.90;;;;;;5046080;28;20394;-78
2021/07/12 06:52:19;;;;;;;19.17;16.42;;;21.80;99.90;;;;;;5040539;28;20025;-83
2021/07/12 06:54:45;;;;;;;19.50;15.98;;;21.90;99.90;;;;;;5023201;28;20713;-78
2021/07/12 06:57:15;;;;;;;16.92;14.65;;;22.00;99.90;;;;;;5034686;28;20167;-78
2021/07/12 06:59:41;;;;;;;16.98;14.45;;;22.00;99.90;;;;;;5042878;28;20053;-80
2021/07/12 07:02:07;;;;;;;17.73;15.18;;;22.00;99.90;;;;;;5046925;28;20124;-80
2021/07/12 07:04:33;;;;;;;18.33;15.80;;;22.00;99.90;;;;;;5024501;28;20029;-81
2021/07/12 07:07:01;;;;;;;16.10;14.35;;;21.90;99.90;;;;;;5030306;28;20046;-82
2021/07/12 07:09:27;;;;;;;18.35;15.38;;;21.90;99.90;;;;;;5028108;28;20052;-76
2021/07/12 07:11:53;;;;;;;17.95;15.52;;;22.00;99.90;;;;;;5036541;28;20041;-81
2021/07/12 07:14:20;;;;;;;16.92;14.30;;;22.20;99.90;;;;;;5042237;28;20032;-78
2021/07/12 07:16:47;;;;;;;16.02;14.25;;;22.30;99.90;;;;;;5031044;28;20043;-79
2021/07/12 07:19:13;;;;;;;16.50;14.57;;;22.50;99.90;;;;;;5041784;28;20098;-80
2021/07/12 07:21:39;;;;;;;15.27;13.25;;;22.70;99.90;;;;;;5029411;28;20045;-77
2021/07/12 07:24:06;;;;;;;14.50;13.10;;;22.70;99.90;;;;;;5050802;28;20043;-77
2021/07/12 07:26:33;;;;;;;14.52;12.55;;;22.80;99.90;;;;;;5040637;28;20090;-80
2021/07/12 07:28:59;;;;;;;15.23;13.20;;;22.90;99.90;;;;;;5038828;28;20069;-80
2021/07/12 07:31:25;;;;;;;13.70;12.25;;;23.00;99.90;;;;;;5048297;28;20131;-80
2021/07/12 07:33:51;;;;;;;14.98;13.25;;;23.10;99.90;;;;;;5028498;28;20463;-82
2021/07/12 07:36:17;;;;;;;14.98;13.48;;;23.20;99.90;;;;;;5073217;28;20037;-82
2021/07/12 07:38:44;;;;;;;14.27;12.88;;;23.30;99.90;;;;;;5050242;28;20052;-79
2021/07/12 07:41:10;;;;;;;15.35;13.75;;;23.30;99.90;;;;;;5037778;28;20049;-78
2021/07/12 07:43:36;;;;;;;13.25;11.95;;;23.30;99.90;;;;;;5034106;28;20116;-81
2021/07/12 07:46:02;;;;;;;12.18;10.82;;;23.40;99.90;;;;;;5026679;28;20051;-75
2021/07/12 07:48:28;;;;;;;12.93;11.60;;;23.50;99.90;;;;;;5038738;28;20132;-80
2021/07/12 07:50:54;;;;;;;14.15;12.60;;;23.60;99.90;;;;;;5039593;28;20124;-80
2021/07/12 07:53:20;;;;;;;12.90;11.60;;;23.70;99.90;;;;;;5040141;28;20037;-82
2021/07/12 07:55:46;;;;;;;13.70;11.93;;;23.90;99.90;;;;;;5007421;28;20052;-82
2021/07/12 07:58:12;;;;;;;12.95;11.65;;;24.20;99.90;;;;;;5028231;28;20041;-79
2021/07/12 08:00:38;;;;;;;12.55;11.23;;;24.20;99.90;;;;;;5039878;28;20049;-77
2021/07/12 08:03:05;;;;;;;13.45;12.05;;;24.20;99.90;;;;;;5040076;28;20485;-81
2021/07/12 08:05:32;;;;;;;13.65;12.25;;;24.30;99.90;;;;;;5044502;28;20845;-78
2021/07/12 08:07:58;;;;;;;11.60;9.85;;;24.30;99.90;;;;;;5036804;28;20112;-79
2021/07/12 08:10:24;;;;;;;13.05;10.75;;;24.40;99.90;;;;;;5038194;28;20029;-79
2021/07/12 08:12:50;;;;;;;12.50;11.15;;;24.50;99.90;;;;;;5037382;28;20464;-82
2021/07/12 08:15:17;;;;;;;12.52;11.32;;;24.50;99.90;;;;;;5027729;28;20037;-78
2021/07/12 08:17:46;;;;;;;11.30;10.20;;;24.70;99.90;;;;;;5040320;28;20094;-79
2021/07/12 08:20:13;;;;;;;13.13;10.60;;;24.70;99.90;;;;;;5021736;28;20044;-78
2021/07/12 08:22:40;;;;;;;13.48;11.25;;;24.70;99.90;;;;;;5020408;28;20069;-81
2021/07/12 08:25:08;;;;;;;12.88;10.88;;;24.60;99.90;;;;;;5045630;28;20091;-80
2021/07/12 08:27:35;;;;;;;11.10;9.93;;;24.40;99.90;;;;;;5041213;28;20041;-78
2021/07/12 08:30:01;;;;;;;10.45;9.07;;;24.50;99.90;;;;;;5025433;28;20049;-78
2021/07/12 08:32:27;;;;;;;11.60;10.40;;;24.60;99.90;;;;;;5046809;28;20074;-80
2021/07/12 08:34:53;;;;;;;10.63;9.63;;;24.70;99.90;;;;;;5052683;28;20049;-80
2021/07/12 08:37:19;;;;;;;11.45;10.32;;;24.80;99.90;;;;;;5044234;28;20490;-80
2021/07/12 08:39:45;;;;;;;10.48;9.38;;;24.90;99.90;;;;;;5064329;28;20052;-83
2021/07/12 08:42:12;;;;;;;10.50;9.40;;;24.90;99.90;;;;;;5027688;28;20041;-81
2021/07/12 08:44:39;;;;;;;10.63;9.52;;;24.80;99.90;;;;;;5046368;28;20796;-80
2021/07/12 08:47:08;;;;;;;16.40;9.75;;;24.60;99.90;;;;;;5048075;28;20037;-80
2021/07/12 08:49:35;;;;;;;11.15;9.65;;;24.50;99.90;;;;;;5028784;28;20565;-78
2021/07/12 08:52:03;;;;;;;10.63;9.52;;;24.60;99.90;;;;;;5052392;28;20378;-79
2021/07/12 08:54:29;;;;;;;9.73;8.73;;;24.60;99.90;;;;;;5033415;28;20037;-77
2021/07/12 08:56:55;;;;;;;11.00;9.90;;;24.80;99.90;;;;;;5057228;28;20037;-80
2021/07/12 08:59:41;;;;;;;12.02;10.00;;;25.10;99.90;;;;;;5043647;28;20452;-80
2021/07/12 09:02:11;;;;;;;14.35;11.05;;;25.30;99.90;;;;;;5047202;28;20048;-80
2021/07/12 09:04:40;;;;;;;12.60;10.65;;;25.50;99.90;;;;;;5020029;28;20041;-77
2021/07/12 09:07:09;;;;;;;13.70;11.70;;;25.60;99.90;;;;;;5042346;28;20048;-76
2021/07/12 09:09:35;;;;;;;13.93;12.52;;;25.70;99.90;;;;;;5050495;28;20056;-75
2021/07/12 09:12:11;;;;;;;14.38;12.88;;;25.70;99.90;;;;;;5035057;28;20140;-77
2021/07/12 09:14:39;;;;;;;15.10;13.50;;;25.70;99.90;;;;;;5028385;28;20045;-84
2021/07/12 09:17:07;;;;;;;13.98;12.48;;;25.80;99.90;;;;;;5021456;28;20045;-78
2021/07/12 09:19:35;;;;;;;14.15;12.75;;;25.80;99.90;;;;;;5031989;28;20041;-74
2021/07/12 09:22:07;;;;;;;15.25;13.75;;;25.80;99.90;;;;;;5040949;28;20557;-78
2021/07/12 09:24:35;;;;;;;12.15;10.95;;;25.70;99.90;;;;;;5049802;28;20734;-78
2021/07/12 09:27:14;;;;;;;12.70;11.50;;;25.70;99.90;;;;;;5050652;28;20033;-77
2021/07/12 09:29:45;;;;;;;13.75;12.43;;;25.50;99.90;;;;;;5042016;28;20033;-79
2021/07/12 09:32:18;;;;;;;13.85;12.45;;;25.40;99.90;;;;;;5022742;28;20048;-75
2021/07/12 09:34:46;;;;;;;13.73;12.32;;;25.40;99.90;;;;;;5035912;28;20044;-78
2021/07/12 09:37:15;;;;;;;13.55;12.15;;;25.30;99.90;;;;;;5058851;28;20036;-78
2021/07/12 09:39:43;;;;;;;12.85;11.55;;;25.30;99.90;;;;;;5025579;28;20091;-74
2021/07/12 09:42:17;;;;;;;13.77;11.55;;;25.40;99.90;;;;;;5043501;28;20056;-82
2021/07/12 09:44:46;;;;;;;12.55;11.32;;;25.60;99.90;;;;;;5046888;28;20047;-81
2021/07/12 09:47:19;;;;;;;15.50;11.77;;;25.70;99.90;;;;;;5042878;28;20099;-78
2021/07/12 09:49:46;;;;;;;12.38;11.18;;;26.00;99.90;;;;;;5029084;28;20061;-76
2021/07/12 09:52:21;;;;;;;13.07;11.65;;;26.40;99.90;;;;;;5029022;28;20080;-79
2021/07/12 09:54:48;;;;;;;13.07;11.75;;;26.80;99.90;;;;;;5029530;28;20045;-79
2021/07/12 09:57:22;;;;;;;11.55;10.43;;;27.00;99.90;;;;;;5039230;28;20036;-76
2021/07/12 09:59:52;;;;;;;13.50;11.35;;;27.10;99.90;;;;;;5033046;28;20384;-77
2021/07/12 10:02:23;;;;;;;12.85;11.48;;;27.10;99.90;;;;;;5050908;28;20753;-83
2021/07/12 10:04:54;;;;;;;13.30;12.00;;;27.20;99.90;;;;;;5033670;28;20037;-79
2021/07/12 10:07:21;;;;;;;12.60;11.30;;;27.10;99.90;;;;;;5048058;28;20498;-77
2021/07/12 10:09:47;;;;;;;12.15;10.40;;;27.00;99.90;;;;;;5045958;28;20043;-79
2021/07/12 10:12:13;;;;;;;12.18;11.05;;;26.90;99.90;;;;;;5030085;28;20025;-75
2021/07/12 10:14:41;;;;;;;12.45;11.00;;;26.80;99.90;;;;;;5028117;28;20037;-79
2021/07/12 10:17:09;;;;;;;12.30;11.05;;;26.70;99.90;;;;;;5043948;28;20052;-76
2021/07/12 10:19:36;;;;;;;14.20;12.35;;;26.60;99.90;;;;;;5048855;28;20049;-80
2021/07/12 10:22:03;;;;;;;13.50;12.18;;;26.60;99.90;;;;;;5051911;28;20095;-80
2021/07/12 10:24:37;;;;;;;14.13;12.73;;;26.70;99.90;;;;;;5032146;28;20033;-81
2021/07/12 10:27:05;;;;;;;13.82;12.27;;;26.70;99.90;;;;;;5051668;28;20065;-77
2021/07/12 10:29:34;;;;;;;13.25;11.95;;;26.80;99.90;;;;;;5046381;28;20100;-81
2021/07/12 10:32:01;;;;;;;12.82;11.52;;;27.10;99.90;;;;;;5058578;28;20093;-81
2021/07/12 10:34:54;;;;;;;13.32;12.02;;;27.40;99.90;;;;;;5051352;28;20042;-76
2021/07/12 10:37:26;;;;;;;14.77;13.27;;;27.60;99.90;;;;;;5040854;28;20033;-80
2021/07/12 10:40:18;;;;;;;15.65;12.88;;;27.90;99.90;;;;;;5024078;28;20121;-81
2021/07/12 10:42:53;;;;;;;14.88;13.20;;;28.10;99.90;;;;;;5050799;28;20336;-78
2021/07/12 10:45:23;;;;;;;13.68;12.38;;;28.00;98.20;;;;;;5015199;28;20037;-79
2021/07/12 10:47:54;;;;;;;12.82;11.63;;;27.70;97.70;;;;;;5028416;28;20045;-80
2021/07/12 10:50:38;;;;;;;13.75;12.27;;;27.70;99.10;;;;;;5036934;28;20779;-76
2021/07/12 10:53:16;;;;;;;13.68;12.27;;;27.80;98.80;;;;;;5040124;28;20473;-75
2021/07/12 10:55:46;;;;;;;12.88;11.63;;;27.90;99.90;;;;;;5034933;28;20067;-77
2021/07/12 10:58:18;;;;;;;14.15;12.85;;;27.90;99.90;;;;;;5031002;28;20041;-76
2021/07/12 11:00:45;;;;;;;13.50;12.10;;;27.90;99.90;;;;;;5044821;28;20037;-79
2021/07/12 11:03:35;;;;;;;13.82;12.30;;;27.90;98.70;;;;;;5037843;28;20044;-81
2021/07/12 11:06:06;;;;;;;13.90;12.45;;;27.60;99.30;;;;;;5050884;28;20564;-80
2021/07/12 11:08:46;;;;;;;12.88;11.50;;;27.40;98.60;;;;;;5040880;28;20549;-80
2021/07/12 11:11:39;;;;;;;14.70;13.20;;;27.30;99.90;;;;;;5036915;28;20044;-76
2021/07/12 11:14:07;;;;;;;14.68;13.27;;;27.40;99.90;;;;;;5029550;28;20418;-77
2021/07/12 11:16:45;;;;;;;14.57;13.00;;;27.40;98.70;;;;;;5038934;28;20045;-83
2021/07/12 11:19:19;;;;;;;13.30;12.00;;;27.30;99.40;;;;;;5031655;28;20036;-80
2021/07/12 11:21:45;;;;;;;14.82;13.32;;;27.10;99.90;;;;;;5031449;28;20037;-83
2021/07/12 11:24:11;;;;;;;16.98;15.02;;;27.00;99.90;;;;;;5043291;28;20041;-76
2021/07/12 11:26:40;;;;;;;14.60;13.20;;;26.80;99.90;;;;;;5047221;28;20068;-76
2021/07/12 11:29:21;;;;;;;15.95;14.35;;;26.90;99.90;;;;;;5035687;28;20041;-77
2021/07/12 11:31:51;;;;;;;18.25;16.35;;;26.90;99.90;;;;;;5051368;28;20124;-79
2021/07/12 11:34:27;;;;;;;16.77;15.05;;;26.80;99.90;;;;;;5049006;28;20037;-76
2021/07/12 11:36:54;;;;;;;18.35;16.55;;;26.80;99.90;;;;;;5053203;28;20043;-80
2021/07/12 11:39:22;;;;;;;16.88;15.07;;;26.80;99.90;;;;;;5039540;28;20085;-76
2021/07/12 11:41:49;;;;;;;17.38;15.65;;;27.00;99.90;;;;;;5036321;28;20132;-81
2021/07/12 11:44:17;;;;;;;17.38;15.55;;;27.20;99.90;;;;;;5015870;28;20391;-79
2021/07/12 11:46:44;;;;;;;17.15;15.45;;;27.50;99.90;;;;;;5035812;28;20388;-78
2021/07/12 11:49:16;;;;;;;16.42;14.75;;;27.70;99.90;;;;;;5031848;28;20076;-78
2021/07/12 11:51:42;;;;;;;17.38;15.55;;;27.80;99.90;;;;;;5032089;28;20043;-82
2021/07/12 11:54:17;;;;;;;17.25;15.55;;;28.00;99.90;;;;;;5022147;28;20472;-83
2021/07/12 11:57:01;;;;;;;16.00;14.30;;;28.00;99.80;;;;;;5012314;28;20091;-79
2021/07/12 11:59:32;;;;;;;16.67;14.88;;;27.90;99.90;;;;;;5031766;28;20037;-79
2021/07/12 12:02:05;;;;;;;14.48;12.98;;;27.90;99.90;;;;;;5035580;28;20057;-76
2021/07/12 12:04:44;;;;;;;18.20;12.52;;;28.00;99.90;;;;;;5045782;28;20046;-81
2021/07/12 12:07:30;;;;;;;13.85;12.45;;;28.20;98.00;;;;;;5045515;28;20037;-81
2021/07/12 12:09:58;;;;;;;18.88;16.90;;;28.20;99.30;;;;;;5047090;28;20036;-80
2021/07/12 12:12:39;;;;;;;17.02;15.32;;;28.40;99.40;;;;;;5037878;28;20056;-83
2021/07/12 12:15:17;;;;;;;18.48;16.58;;;28.60;99.90;;;;;;5051538;28;20060;-82
2021/07/12 12:18:01;;;;;;;18.90;16.98;;;28.40;99.00;;;;;;5016129;28;20045;-76
2021/07/12 12:20:27;;;;;;;19.42;17.48;;;28.30;99.90;;;;;;5043548;28;20056;-77
2021/07/12 12:23:13;;;;;;;20.20;18.20;;;28.50;99.90;;;;;;5027485;28;20084;-77
2021/07/12 12:25:43;;;;;;;19.67;17.67;;;28.60;99.70;;;;;;5035479;28;20053;-77
2021/07/12 12:28:47;;;;;;;17.67;15.98;;;28.60;99.50;;;;;;5024998;28;20041;-83
2021/07/12 12:31:27;;;;;;;19.70;17.60;;;28.60;99.90;;;;;;5022023;28;20438;-84
2021/07/12 12:34:18;;;;;;;20.45;18.42;;;28.70;99.90;;;;;;5013653;28;20025;-78
2021/07/12 12:36:44;;;;;;;21.10;18.90;;;28.80;99.90;;;;;;5011164;28;20048;-76
2021/07/12 12:39:13;;;;;;;20.77;18.63;;;29.20;99.90;;;;;;5053228;28;20415;-78
2021/07/12 12:41:46;;;;;;;21.40;19.27;;;29.60;99.90;;;;;;5036071;28;20506;-79
2021/07/12 12:44:14;;;;;;;19.45;17.33;;;30.20;97.30;;;;;;5039836;28;20378;-79
2021/07/12 12:47:09;;;;;;;17.75;15.95;;;30.60;95.80;;;;;;5032687;28;20045;-82
2021/07/12 12:49:37;;;;;;;21.20;19.05;;;31.00;94.50;;;;;;5012963;28;20053;-80